Time,TemperatureF,DewpointF,PressureIn,WindDirection,WindDirectionDegrees,WindSpeedMPH,WindSpeedGustMPH,Humidity,HourlyPrecipIn,Conditions,Clouds,dailyrainin,SoftwareType,DateUTC
2013-07-05 00:02:00,63.0,53.0,-100.00,East,80,2.0,2.0,69,-99.99,,,-99.99,,2013-07-05 06:02:00,
2013-07-05 00:13:00,63.0,53.0,-100.00,East,80,2.0,2.0,69,-99.99,,,-99.99,,2013-07-05 06:13:00,
2013-07-05 00:43:00,63.0,53.0,-100.00,East,95,4.0,6.0,70,-99.99,,,-99.99,,2013-07-05 06:43:00,
2013-07-05 00:53:00,63.0,53.0,-100.00,South,175,4.0,4.0,70,-99.99,,,-99.99,,2013-07-05 06:53:00,
2013-07-05 01:02:00,62.0,54.0,-100.00,SE,125,4.0,5.0,73,-99.99,,,-99.99,,2013-07-05 07:02:00,
2013-07-05 01:12:00,62.0,54.0,-100.00,SE,125,4.0,5.0,73,-99.99,,,-99.99,,2013-07-05 07:12:00,
2013-07-05 01:43:00,62.0,53.0,-100.00,East,100,4.0,5.0,72,-99.99,,,-99.99,,2013-07-05 07:43:00,
2013-07-05 01:53:00,62.0,53.0,-100.00,ESE,110,3.0,4.0,72,-99.99,,,-99.99,,2013-07-05 07:53:00,
2013-07-05 02:02:00,62.0,53.0,-100.00,ESE,105,3.0,4.0,72,-99.99,,,-99.99,,2013-07-05 08:02:00,
2013-07-05 02:12:00,62.0,53.0,-100.00,ESE,105,3.0,4.0,72,-99.99,,,-99.99,,2013-07-05 08:12:00,
2013-07-05 02:43:00,62.0,54.0,-100.00,ESE,115,3.0,4.0,72,-99.99,,,-99.99,,2013-07-05 08:43:00,
2013-07-05 02:57:00,62.0,54.0,-100.00,ESE,110,4.0,4.0,73,-99.99,,,-99.99,,2013-07-05 08:57:00,
2013-07-05 03:06:00,62.0,54.0,-100.00,ESE,105,4.0,5.0,73,-99.99,,,-99.99,,2013-07-05 09:06:00,
2013-07-05 03:15:00,62.0,54.0,-100.00,ESE,105,4.0,5.0,73,-99.99,,,-99.99,,2013-07-05 09:15:00,
2013-07-05 03:45:00,62.0,53.0,-100.00,ENE,70,4.0,6.0,72,-99.99,,,-99.99,,2013-07-05 09:45:00,
2013-07-05 03:56:00,64.0,53.0,-100.00,ENE,60,4.0,6.0,66,-99.99,,,-99.99,,2013-07-05 09:56:00,
2013-07-05 04:06:00,64.0,52.0,-100.00,East,85,6.0,7.0,66,-99.99,,,-99.99,,2013-07-05 10:06:00,
2013-07-05 04:35:00,63.0,53.0,-100.00,SE,125,0.0,3.0,70,-99.99,,,-99.99,,2013-07-05 10:35:00,
2013-07-05 04:46:00,63.0,53.0,-100.00,SE,125,0.0,3.0,70,-99.99,,,-99.99,,2013-07-05 10:46:00,
2013-07-05 04:57:00,62.0,54.0,-100.00,NNE,15,7.0,9.0,73,-99.99,,,-99.99,,2013-07-05 10:57:00,
2013-07-05 05:06:00,62.0,54.0,-100.00,North,5,3.0,9.0,75,-99.99,,,-99.99,,2013-07-05 11:06:00,
2013-07-05 05:45:00,61.0,54.0,-100.00,NE,50,7.0,7.0,75,-99.99,,,-99.99,,2013-07-05 11:45:00,
2013-07-05 06:00:00,60.0,52.0,-100.00,ESE,110,6.0,7.0,74,-99.99,,,-99.99,,2013-07-05 12:00:00,
2013-07-05 06:06:00,60.0,52.0,-100.00,SE,140,6.0,7.0,76,-99.99,,,-99.99,,2013-07-05 12:06:00,
2013-07-05 06:14:00,60.0,52.0,-100.00,SE,140,6.0,7.0,76,-99.99,,,-99.99,,2013-07-05 12:14:00,
2013-07-05 06:35:00,62.0,52.0,-100.00,SSE,165,7.0,12.0,68,-99.99,,,-99.99,,2013-07-05 12:35:00,
2013-07-05 06:45:00,62.0,52.0,-100.00,SSE,165,7.0,12.0,68,-99.99,,,-99.99,,2013-07-05 12:45:00,
2013-07-05 06:59:00,64.0,52.0,-100.00,SE,140,4.0,7.0,64,-99.99,,,-99.99,,2013-07-05 12:59:00,
2013-07-05 07:05:00,64.0,51.0,-100.00,SE,130,6.0,9.0,62,-99.99,,,-99.99,,2013-07-05 13:05:00,
2013-07-05 07:13:00,64.0,51.0,-100.00,SE,130,6.0,9.0,62,-99.99,,,-99.99,,2013-07-05 13:13:00,
2013-07-05 07:58:00,68.0,51.0,-100.00,SE,130,9.0,12.0,53,-99.99,,,-99.99,,2013-07-05 13:58:00,
2013-07-05 08:14:00,69.0,51.0,-100.00,SE,130,8.0,12.0,52,-99.99,,,-99.99,,2013-07-05 14:14:00,
2013-07-05 08:45:00,72.0,51.0,-100.00,SE,130,12.0,16.0,47,-99.99,,,-99.99,,2013-07-05 14:45:00,
2013-07-05 09:05:00,73.0,50.0,-100.00,SE,125,12.0,18.0,45,-99.99,,,-99.99,,2013-07-05 15:05:00,
2013-07-05 09:15:00,73.0,50.0,-100.00,SE,125,12.0,18.0,45,-99.99,,,-99.99,,2013-07-05 15:15:00,
2013-07-05 09:43:00,72.0,50.0,-100.00,SE,130,10.0,16.0,45,-99.99,,,-99.99,,2013-07-05 15:43:00,
2013-07-05 09:53:00,72.0,50.0,-100.00,SE,135,13.0,17.0,46,-99.99,,,-99.99,,2013-07-05 15:53:00,
2013-07-05 10:02:00,72.0,51.0,-100.00,SE,140,14.0,17.0,46,-99.99,,,-99.99,,2013-07-05 16:02:00,
2013-07-05 10:33:00,73.0,52.0,-100.00,SE,145,14.0,19.0,48,-99.99,,,-99.99,,2013-07-05 16:33:00,
2013-07-05 10:44:00,73.0,52.0,-100.00,SE,145,14.0,19.0,48,-99.99,,,-99.99,,2013-07-05 16:44:00,
2013-07-05 10:53:00,74.0,52.0,-100.00,SE,145,16.0,19.0,45,-99.99,,,-99.99,,2013-07-05 16:53:00,
2013-07-05 11:02:00,75.0,53.0,-100.00,SE,145,14.0,21.0,45,-99.99,,,-99.99,,2013-07-05 17:02:00,
2013-07-05 11:43:00,77.0,53.0,-100.00,SSE,165,14.0,22.0,42,-99.99,,,-99.99,,2013-07-05 17:43:00,
2013-07-05 11:53:00,79.0,53.0,-100.00,SSE,155,16.0,22.0,41,-99.99,,,-99.99,,2013-07-05 17:53:00,
2013-07-05 12:01:00,79.0,53.0,-100.00,SSE,155,16.0,24.0,40,-99.99,,,-99.99,,2013-07-05 18:01:00,
2013-07-05 12:11:00,79.0,53.0,-100.00,SSE,155,16.0,24.0,40,-99.99,,,-99.99,,2013-07-05 18:11:00,
2013-07-05 12:53:00,81.0,54.0,-100.00,SSE,165,15.0,20.0,39,-99.99,,,-99.99,,2013-07-05 18:53:00,
2013-07-05 13:01:00,81.0,54.0,-100.00,SSE,165,13.0,21.0,39,-99.99,,,-99.99,,2013-07-05 19:01:00,
2013-07-05 13:12:00,81.0,54.0,-100.00,SSE,165,13.0,21.0,39,-99.99,,,-99.99,,2013-07-05 19:12:00,
2013-07-05 13:42:00,81.0,54.0,-100.00,SSE,160,18.0,22.0,38,-99.99,,,-99.99,,2013-07-05 19:42:00,
2013-07-05 13:53:00,81.0,53.0,-100.00,SSE,165,17.0,23.0,37,-99.99,,,-99.99,,2013-07-05 19:53:00,
2013-07-05 14:11:00,82.0,54.0,-100.00,South,170,15.0,20.0,38,-99.99,,,-99.99,,2013-07-05 20:11:00,
2013-07-05 14:53:00,81.0,54.0,-100.00,SSE,155,14.0,18.0,39,-99.99,,,-99.99,,2013-07-05 20:53:00,
2013-07-05 15:42:00,81.0,56.0,-100.00,SSE,150,12.0,15.0,42,-99.99,,,-99.99,,2013-07-05 21:42:00,
2013-07-05 16:01:00,83.0,56.0,-100.00,SSE,150,14.0,19.0,39,-99.99,,,-99.99,,2013-07-05 22:01:00,
2013-07-05 16:11:00,83.0,56.0,-100.00,SSE,150,14.0,19.0,39,-99.99,,,-99.99,,2013-07-05 22:11:00,
2013-07-05 16:53:00,81.0,56.0,-100.00,South,175,11.0,17.0,42,-99.99,,,-99.99,,2013-07-05 22:53:00,
2013-07-05 17:02:00,80.0,55.0,-100.00,SSE,155,9.0,15.0,42,-99.99,,,-99.99,,2013-07-05 23:02:00,
2013-07-05 17:11:00,80.0,55.0,-100.00,SSE,155,9.0,15.0,42,-99.99,,,-99.99,,2013-07-05 23:11:00,
2013-07-05 18:53:00,64.0,59.0,-100.00,SW,230,7.0,9.0,83,-99.99,,,-99.99,,2013-07-06 00:53:00,
2013-07-05 19:02:00,64.0,59.0,-100.00,SSE,165,6.0,9.0,83,-99.99,,,-99.99,,2013-07-06 01:02:00,
2013-07-05 19:12:00,64.0,59.0,-100.00,SSE,165,6.0,9.0,83,-99.99,,,-99.99,,2013-07-06 01:12:00,
2013-07-05 19:42:00,65.0,60.0,-100.00,ESE,105,10.0,12.0,82,-99.99,,,-99.99,,2013-07-06 01:42:00,
2013-07-05 19:53:00,66.0,60.0,-100.00,East,100,9.0,11.0,80,-99.99,,,-99.99,,2013-07-06 01:53:00,
2013-07-05 20:02:00,67.0,60.0,-100.00,East,100,9.0,12.0,78,-99.99,,,-99.99,,2013-07-06 02:02:00,
2013-07-05 20:12:00,67.0,60.0,-100.00,East,100,9.0,12.0,78,-99.99,,,-99.99,,2013-07-06 02:12:00,
2013-07-05 20:43:00,66.0,60.0,-100.00,SE,125,14.0,17.0,79,-99.99,,,-99.99,,2013-07-06 02:43:00,
2013-07-05 20:53:00,66.0,60.0,-100.00,ESE,105,12.0,19.0,81,-99.99,,,-99.99,,2013-07-06 02:53:00,
2013-07-05 21:02:00,65.0,60.0,-100.00,East,95,12.0,18.0,81,-99.99,,,-99.99,,2013-07-06 03:02:00,
2013-07-05 21:12:00,65.0,60.0,-100.00,East,95,12.0,18.0,81,-99.99,,,-99.99,,2013-07-06 03:12:00,
2013-07-05 21:43:00,65.0,59.0,-100.00,East,80,14.0,18.0,81,-99.99,,,-99.99,,2013-07-06 03:43:00,
2013-07-05 21:53:00,65.0,60.0,-100.00,East,80,16.0,22.0,82,-99.99,,,-99.99,,2013-07-06 03:53:00,
2013-07-05 22:02:00,65.0,60.0,-100.00,East,80,13.0,20.0,82,-99.99,,,-99.99,,2013-07-06 04:02:00,
2013-07-05 22:12:00,65.0,60.0,-100.00,East,80,13.0,20.0,82,-99.99,,,-99.99,,2013-07-06 04:12:00,
2013-07-05 22:33:00,64.0,59.0,-100.00,ENE,65,12.0,15.0,82,-99.99,,,-99.99,,2013-07-06 04:33:00,
2013-07-05 22:43:00,64.0,59.0,-100.00,ENE,65,12.0,15.0,82,-99.99,,,-99.99,,2013-07-06 04:43:00,
2013-07-05 22:53:00,63.0,57.0,-100.00,ENE,70,14.0,18.0,82,-99.99,,,-99.99,,2013-07-06 04:53:00,
2013-07-05 23:02:00,63.0,57.0,-100.00,ENE,75,11.0,17.0,82,-99.99,,,-99.99,,2013-07-06 05:02:00,
2013-07-05 23:12:00,63.0,57.0,-100.00,ENE,75,11.0,17.0,82,-99.99,,,-99.99,,2013-07-06 05:12:00,
2013-07-05 23:33:00,62.0,57.0,-100.00,East,85,9.0,16.0,82,-99.99,,,-99.99,,2013-07-06 05:33:00,
2013-07-05 23:53:00,62.0,56.0,-100.00,East,100,11.0,14.0,82,-99.99,,,-99.99,,2013-07-06 05:53:00,